Farmington ASC

Feb. 28, 2020, noon

  • imperial
Air Temperature RH Dewpoint Wind Chill Heat Index Wind Speed Wind Direction Precipitation Solar Radiation Soil Temperature
Date Time Max Mean Mean Total Total
US/Mountain F % F F F MPH MPH MPH deg. deg. in. MJ/m^2 F
2020-02-27 12:00 45.28 24.77 11.28 38.9 45.28 13.85 15.99 13.0 264.4 273.6 0.0 0.225 38.07
2020-02-27 12:05 46.38 24.33 11.82 40.25 46.38 14.03 15.1 12.93 257.9 269.9 0.0 0.226 38.37
2020-02-27 12:10 46.99 23.82 11.86 43.1 46.99 7.96 14.92 11.74 284.6 266.6 0.0 0.226 38.68
2020-02-27 12:15 47.17 23.31 11.52 42.05 47.17 11.34 15.64 11.43 279.4 283.8 0.0 0.226 38.98
2020-02-27 12:20 46.74 23.34 11.19 42.2 46.74 9.4 15.46 11.9 306.8 279.7 0.0 0.227 39.31
2020-02-27 12:25 47.3 24.02 12.31 43.1 47.3 8.86 15.1 11.19 299.2 287.2 0.0 0.227 39.58
2020-02-27 12:30 47.35 23.27 11.64 41.89 47.35 12.59 15.99 12.35 255.3 268.1 0.0 0.227 39.9
2020-02-27 12:35 47.34 23.3 11.65 42.68 47.34 10.09 16.71 12.48 266.2 271.6 0.0 0.227 40.17
2020-02-27 12:40 47.95 22.59 11.47 43.19 47.95 10.8 14.03 11.12 262.9 278.8 0.0 0.226 40.46
2020-02-27 12:45 48.74 21.84 11.38 44.42 48.74 10.09 14.03 11.5 252.9 269.0 0.0 0.226 40.75
2020-02-27 12:50 48.51 21.91 11.25 44.25 48.51 9.73 17.07 12.39 306.9 280.1 0.0 0.225 41.04
2020-02-27 12:55 49.12 20.48 10.25 43.92 49.12 13.31 16.53 11.72 278.9 281.0 0.0 0.225 41.31
2020-02-27 13:00 48.94 21.63 11.33 44.1 48.94 11.88 18.68 12.55 268.6 282.7 0.0 0.224 41.56
2020-02-27 13:05 49.86 20.92 11.35 46.96 49.86 7.07 15.82 11.61 289.3 278.8 0.0 0.223 41.85
2020-02-27 13:10 50.52 19.36 10.16 50.52 50.52 15.46 15.46 10.87 278.5 288.0 0.0 0.222 42.08
2020-02-27 13:15 49.66 20.14 10.33 44.56 49.66 13.49 15.64 12.66 290.9 289.0 0.0 0.221 42.33
2020-02-27 13:20 51.01 19.49 10.72 51.01 51.01 14.56 15.46 12.37 257.7 278.0 0.0 0.22 42.6
2020-02-27 13:25 50.7 19.49 10.46 50.7 50.7 14.03 17.61 13.67 259.6 275.1 0.0 0.219 42.82
2020-02-27 13:30 51.26 18.68 9.97 51.26 51.26 12.24 18.5 12.86 262.5 275.0 0.0 0.217 43.07
2020-02-27 13:35 50.76 18.37 9.18 50.76 50.76 10.27 17.61 13.65 314.6 278.5 0.0 0.215 43.27
2020-02-27 13:40 51.31 19.49 10.97 51.31 51.31 9.91 16.71 12.01 281.7 287.3 0.0 0.214 43.52
2020-02-27 13:45 51.8 17.59 9.08 51.8 51.8 13.49 16.17 12.82 271.8 274.9 0.0 0.212 43.7
2020-02-27 13:50 51.49 18.34 9.76 51.49 51.49 13.49 14.74 11.99 296.0 288.1 0.0 0.21 43.9
2020-02-27 13:55 51.67 17.49 8.84 51.67 51.67 13.85 17.25 13.51 277.5 292.0 0.0 0.208 44.08
2020-02-27 14:00 51.93 17.01 8.43 51.93 51.93 13.49 19.75 13.27 273.2 287.1 0.0 0.206 44.28
2020-02-27 14:05 51.87 17.08 8.48 51.87 51.87 13.67 17.61 13.2 278.9 292.2 0.0 0.203 44.44
2020-02-27 14:10 52.23 17.39 9.18 52.23 52.23 10.09 17.61 12.89 310.9 288.6 0.0 0.201 44.6
2020-02-27 14:15 52.11 16.64 8.09 52.11 52.11 17.25 17.61 13.29 270.9 281.8 0.0 0.199 44.76
2020-02-27 14:20 51.26 17.22 8.16 51.26 51.26 12.42 18.5 15.06 296.8 284.1 0.0 0.196 44.92
2020-02-27 14:25 52.16 16.6 8.08 52.16 52.16 14.03 19.57 13.35 279.7 289.3 0.0 0.193 45.07
2020-02-27 14:30 52.23 16.47 7.97 52.23 52.23 13.49 18.32 13.78 291.2 278.4 0.0 0.19 45.18
2020-02-27 14:35 52.47 17.01 8.87 52.47 52.47 13.13 17.43 13.6 288.0 279.4 0.0 0.187 45.27
2020-02-27 14:40 52.11 17.04 8.62 52.11 52.11 12.42 15.64 12.91 296.4 290.9 0.0 0.183 45.34
2020-02-27 14:45 52.59 17.15 9.16 52.59 52.59 13.85 17.25 12.08 285.6 289.5 0.0 0.18 45.41
2020-02-27 14:50 52.21 17.72 9.58 52.21 52.21 14.2 16.35 12.55 318.6 285.9 0.0 0.177 45.46
2020-02-27 14:55 52.21 17.62 9.45 52.21 52.21 13.31 18.5 12.84 272.0 277.8 0.0 0.173 45.52
2020-02-27 15:00 52.21 17.69 9.54 52.21 52.21 14.03 20.29 14.65 276.7 268.6 0.0 0.17 45.57
2020-02-27 15:05 52.65 17.15 9.2 52.65 52.65 15.46 17.43 12.77 288.9 280.4 0.0 0.166 45.63
2020-02-27 15:10 52.52 17.28 9.27 52.52 52.52 14.2 17.07 13.24 288.3 288.5 0.0 0.162 45.64
2020-02-27 15:15 52.29 17.76 9.69 52.29 52.29 8.48 18.86 12.48 313.1 279.8 0.0 0.158 45.68
2020-02-27 15:20 52.03 17.79 9.52 52.03 52.03 11.34 17.07 13.22 288.7 277.4 0.0 0.154 45.7
2020-02-27 15:25 52.59 17.15 9.16 52.59 52.59 9.04 15.99 11.48 268.1 282.2 0.0 0.15 45.72
2020-02-27 15:30 52.9 16.74 8.87 52.9 52.9 14.03 14.92 12.37 292.0 271.5 0.0 0.145 45.73
2020-02-27 15:35 52.29 17.72 9.64 52.29 52.29 10.63 16.89 13.11 271.3 270.7 0.0 0.141 45.73
2020-02-27 15:40 52.95 16.84 9.05 52.95 52.95 11.88 15.64 12.24 280.8 271.7 0.0 0.137 45.73
2020-02-27 15:45 52.59 17.01 8.98 52.59 52.59 13.49 14.92 11.21 263.8 298.1 0.0 0.132 45.7
2020-02-27 15:50 52.65 16.57 8.44 52.65 52.65 15.82 16.35 13.2 269.1 269.9 0.0 0.128 45.7
2020-02-27 15:55 51.91 17.15 8.6 51.91 51.91 12.06 15.64 11.99 263.3 274.1 0.0 0.123 45.68
2020-02-27 16:00 52.34 16.81 8.51 52.34 52.34 13.31 15.99 12.42 269.4 269.0 0.0 0.119 45.64
2020-02-27 16:05 51.98 16.94 8.39 51.98 51.98 9.57 15.28 12.17 307.5 286.9 0.0 0.114 45.63
2020-02-27 16:10 52.03 16.91 8.39 52.03 52.03 12.06 16.53 11.86 281.9 283.5 0.0 0.109 45.57
2020-02-27 16:15 51.98 17.08 8.57 51.98 51.98 11.52 15.1 11.83 270.6 274.1 0.0 0.105 45.52
2020-02-27 16:20 51.85 16.5 7.7 51.85 51.85 14.2 14.2 11.32 264.5 270.2 0.0 0.1 45.46
2020-02-27 16:25 51.98 16.7 8.07 51.98 51.98 10.27 14.92 11.86 296.1 279.7 0.0 0.095 45.41
2020-02-27 16:30 51.85 16.47 7.66 51.85 51.85 12.24 16.71 11.65 293.9 284.8 0.0 0.09 45.34
2020-02-27 16:35 51.37 16.87 7.79 51.37 51.37 11.34 14.56 11.12 282.1 284.7 0.0 0.085 45.27
2020-02-27 16:40 51.37 16.98 7.94 51.37 51.37 12.42 14.74 11.32 293.2 281.4 0.0 0.08 45.19
2020-02-27 16:45 51.37 17.08 8.07 51.37 51.37 7.78 14.92 10.02 294.1 285.4 0.0 0.075 45.12
2020-02-27 16:50 50.88 17.18 7.8 50.88 50.88 9.4 14.2 10.33 288.3 276.7 0.0 0.07 45.03
2020-02-27 16:55 50.76 16.98 7.44 50.76 50.76 12.77 12.77 10.16 281.9 276.3 0.0 0.065 44.94
2020-02-27 17:00 51.06 17.11 7.85 51.06 51.06 10.45 14.38 9.55 277.3 284.4 0.0 0.06 44.87
2020-02-27 17:05 50.45 17.01 7.22 50.45 50.45 14.2 14.2 9.95 278.4 281.2 0.0 0.055 44.76
2020-02-27 17:10 50.4 17.59 7.92 50.4 50.4 7.61 13.67 9.53 291.3 282.0 0.0 0.051 44.65
2020-02-27 17:15 49.96 17.42 7.35 45.77 49.96 10.63 11.88 9.84 285.4 274.6 0.0 0.046 44.56
2020-02-27 17:20 49.78 18.24 8.22 44.91 49.78 12.77 12.77 9.75 284.7 276.1 0.0 0.041 44.46
2020-02-27 17:25 49.66 18.41 8.32 46.64 49.66 7.25 12.06 9.08 302.4 280.8 0.0 0.035 44.37
2020-02-27 17:30 49.17 18.78 8.36 46.39 49.17 6.53 12.59 7.99 258.1 272.7 0.0 0.029 44.26
2020-02-27 17:35 48.69 18.98 8.2 44.6 48.69 9.4 14.03 9.04 277.3 275.1 0.0 0.023 44.13
2020-02-27 17:40 48.25 19.6 8.55 44.78 48.25 7.61 11.16 8.23 286.1 278.2 0.0 0.018 44.02
2020-02-27 17:45 47.95 20.34 9.12 45.4 47.95 5.64 10.98 7.4 275.1 278.6 0.0 0.013 43.92
2020-02-27 17:50 47.1 20.99 9.11 44.73 47.1 5.1 8.12 5.68 277.1 268.0 0.0 0.009 43.79
2020-02-27 17:55 46.29 21.5 8.97 44.27 46.29 4.38 6.89 5.15 255.5 268.9 0.0 0.006 43.68
2020-02-27 18:00 45.5 22.28 9.09 42.84 45.5 5.1 7.96 5.88 268.0 268.5 0.0 0.003 43.56
2020-02-27 18:05 45.14 22.62 9.13 42.18 45.14 5.46 9.22 5.84 270.4 270.0 0.0 0.002 43.43
2020-02-27 18:10 44.47 22.86 8.8 41.06 44.47 6.0 7.07 5.17 265.6 274.8 0.0 0.001 43.32
2020-02-27 18:15 44.49 22.9 8.85 40.58 44.49 6.89 9.73 7.18 291.0 279.0 0.0 0.0 43.2
2020-02-27 18:20 43.83 23.44 8.8 40.51 43.83 5.64 6.35 5.15 269.3 280.0 0.0 0.0 43.05
2020-02-27 18:25 43.21 23.92 8.73 40.28 43.21 4.92 6.89 5.35 257.7 267.3 0.0 0.0 42.94
2020-02-27 18:30 42.6 25.39 9.54 39.06 42.6 5.64 6.89 5.35 238.8 261.4 0.0 0.0 42.8
2020-02-27 18:35 39.49 28.28 9.26 36.35 39.49 4.38 6.89 4.41 234.3 239.6 0.0 0.0 42.67
2020-02-27 18:40 38.46 29.23 9.1 35.85 38.46 3.67 5.46 4.0 251.1 238.4 0.0 0.0 42.55
2020-02-27 18:45 37.72 30.39 9.33 35.0 37.72 3.67 5.1 3.78 221.2 232.1 0.0 0.0 42.42
2020-02-27 18:50 36.86 31.65 9.47 33.82 36.86 3.85 4.56 3.53 215.0 221.4 0.0 0.0 42.3
2020-02-27 18:55 36.63 32.23 9.67 36.63 36.63 1.7 4.92 3.11 246.1 232.2 0.0 0.0 42.17
2020-02-27 19:00 35.96 34.41 10.55 35.96 35.96 1.88 2.42 1.57 216.3 242.4 0.0 0.0 42.04
2020-02-27 19:05 35.78 35.23 10.92 35.78 35.78 1.7 2.42 1.92 256.6 231.8 0.0 0.0 41.92
2020-02-27 19:10 35.91 35.27 11.06 35.91 35.91 1.7 2.24 1.5 224.7 218.2 0.0 0.0 41.77
2020-02-27 19:15 36.59 34.11 10.91 36.59 36.59 1.52 2.24 1.72 230.1 225.7 0.0 0.0 41.65
2020-02-27 19:20 37.22 33.61 11.14 37.22 37.22 1.7 2.42 1.77 227.4 251.6 0.0 0.0 41.5
2020-02-27 19:25 37.17 33.78 11.21 37.17 37.17 2.06 2.24 1.57 250.6 246.0 0.0 0.0 41.36
2020-02-27 19:30 37.35 33.92 11.46 37.35 37.35 2.24 2.42 1.99 244.0 243.5 0.0 0.0 41.23
2020-02-27 19:35 37.22 34.22 11.54 37.22 37.22 1.7 2.59 2.01 244.4 251.5 0.0 0.0 41.11
2020-02-27 19:40 36.81 34.46 11.33 36.81 36.81 1.52 1.88 1.63 241.5 242.3 0.0 0.0 41.0
2020-02-27 19:45 36.86 34.46 11.38 36.86 36.86 1.52 2.42 1.57 252.3 260.0 0.0 0.0 40.86
2020-02-27 19:50 36.93 34.36 11.38 36.93 36.93 2.06 2.42 1.88 278.1 271.5 0.0 0.0 40.71
2020-02-27 19:55 36.81 34.4 11.3 36.81 36.81 2.77 3.31 2.8 252.8 260.5 0.0 0.0 40.6
2020-02-27 20:00 36.14 35.56 11.45 32.99 36.14 3.85 4.21 3.49 257.2 257.2 0.0 0.0 40.48
2020-02-27 20:05 36.14 35.97 11.71 32.63 36.14 4.21 5.1 3.87 279.5 256.6 0.0 0.0 40.33
2020-02-27 20:10 37.49 34.13 11.72 34.92 37.49 3.49 4.92 3.83 274.7 268.1 0.0 0.0 40.24
2020-02-27 20:15 37.54 34.03 11.71 37.54 37.54 2.42 4.56 3.13 267.5 271.7 0.0 0.0 40.1
2020-02-27 20:20 36.88 35.02 11.76 36.88 36.88 2.42 2.59 2.19 260.4 257.3 0.0 0.0 39.99
2020-02-27 20:25 36.7 35.53 11.93 36.7 36.7 2.77 3.67 2.51 297.4 291.7 0.0 0.0 39.88
2020-02-27 20:30 36.95 35.15 11.91 36.95 36.95 2.77 2.95 2.48 303.2 301.7 0.0 0.0 39.79
2020-02-27 20:35 36.88 34.41 11.37 36.88 36.88 1.88 3.49 2.21 285.0 290.3 0.0 0.0 39.67
2020-02-27 20:40 36.34 35.15 11.37 34.03 36.34 3.13 3.67 2.06 294.1 280.0 0.0 0.0 39.56
2020-02-27 20:45 36.39 35.12 11.39 36.39 36.39 2.42 3.13 2.39 286.6 296.2 0.0 0.0 39.43
2020-02-27 20:50 37.0 33.93 11.16 34.37 37.0 3.49 4.38 3.33 304.8 288.1 0.0 0.0 39.33
2020-02-27 20:55 37.18 33.38 10.95 34.19 37.18 3.85 5.64 3.33 283.5 292.5 0.0 0.0 39.22
2020-02-27 21:00 37.13 33.72 11.13 34.93 37.13 3.13 4.03 2.82 288.3 286.7 0.0 0.0 39.15
2020-02-27 21:05 35.83 35.6 11.2 32.27 35.83 4.21 4.21 2.68 251.0 252.0 0.0 0.0 39.06
2020-02-27 21:10 33.87 39.48 11.78 30.78 33.87 3.49 4.21 3.58 228.3 241.7 0.0 0.0 38.95
2020-02-27 21:15 32.47 41.39 11.57 32.47 32.47 2.77 3.67 3.24 173.1 205.6 0.0 0.0 38.86
2020-02-27 21:20 30.81 44.99 11.95 27.06 30.81 3.67 4.03 3.31 139.9 154.0 0.0 0.0 38.77
2020-02-27 21:25 30.99 44.08 11.65 30.99 30.99 2.95 3.67 3.31 120.9 129.3 0.0 0.0 38.68
2020-02-27 21:30 31.73 42.34 11.41 28.12 31.73 3.67 3.67 3.31 147.0 130.3 0.0 0.0 38.57
2020-02-27 21:35 31.06 44.25 11.8 31.06 31.06 2.77 4.03 3.49 132.4 151.8 0.0 0.0 38.52
2020-02-27 21:40 30.2 45.74 11.76 27.06 30.2 3.13 4.38 3.62 151.8 156.4 0.0 0.0 38.41
2020-02-27 21:45 29.77 46.8 11.88 29.77 29.77 2.95 4.56 3.49 140.6 155.5 0.0 0.0 38.34
2020-02-27 21:50 29.66 46.32 11.55 25.74 29.66 3.67 3.67 3.18 107.4 131.4 0.0 0.0 38.25
2020-02-27 21:55 30.88 43.12 11.06 27.84 30.88 3.13 3.67 3.13 114.1 121.8 0.0 0.0 38.16
2020-02-27 22:00 31.12 42.0 10.68 31.12 31.12 2.77 2.95 2.59 125.3 131.4 0.0 0.0 38.08
2020-02-27 22:05 31.68 41.32 10.82 31.68 31.68 1.88 3.13 2.46 186.5 144.6 0.0 0.0 38.03
2020-02-27 22:10 31.37 41.66 10.72 31.37 31.37 2.59 2.77 2.46 196.6 183.8 0.0 0.0 37.96
2020-02-27 22:15 30.7 42.89 10.77 30.7 30.7 1.34 2.77 1.72 151.0 179.7 0.0 0.0 37.87
2020-02-27 22:20 31.32 41.43 10.55 31.32 31.32 1.88 2.24 1.19 157.7 154.7 0.0 0.0 37.78
2020-02-27 22:25 31.93 40.78 10.75 31.93 31.93 1.88 2.24 1.92 174.2 180.8 0.0 0.0 37.71
2020-02-27 22:30 31.75 40.68 10.53 31.75 31.75 1.34 2.06 1.68 126.0 153.5 0.0 0.0 37.63
2020-02-27 22:35 32.25 39.97 10.59 32.25 32.25 2.06 2.06 1.72 129.2 152.3 0.0 0.0 37.56
2020-02-27 22:40 31.39 41.5 10.65 31.39 31.39 2.24 2.95 2.55 160.2 130.3 0.0 0.0 37.49
2020-02-27 22:45 30.72 42.32 10.49 30.72 30.72 2.59 2.77 2.15 139.7 145.8 0.0 0.0 37.4
2020-02-27 22:50 30.11 44.16 10.89 30.11 30.11 2.95 2.95 2.62 133.8 146.5 0.0 0.0 37.33
2020-02-27 22:55 28.89 45.56 10.47 24.63 28.89 3.85 4.21 3.62 116.7 128.6 0.0 0.0 37.27
2020-02-27 23:00 26.55 49.71 10.26 21.71 26.55 4.03 4.56 3.8 108.1 109.8 0.0 0.0 37.2
2020-02-27 23:05 26.24 50.6 10.38 21.81 26.24 3.67 4.21 3.2 120.1 97.3 0.0 0.0 37.13
2020-02-27 23:10 28.2 46.95 10.51 24.3 28.2 3.49 4.03 3.33 119.2 116.4 0.0 0.0 37.06
2020-02-27 23:15 28.99 45.76 10.66 25.44 28.99 3.31 3.49 3.15 109.0 119.1 0.0 0.0 36.99
2020-02-27 23:20 28.2 46.82 10.45 24.79 28.2 3.13 3.67 3.11 110.7 109.7 0.0 0.0 36.95
2020-02-27 23:25 27.41 48.72 10.61 23.39 27.41 3.49 4.03 3.38 122.7 109.4 0.0 0.0 36.88
2020-02-27 23:30 26.67 49.78 10.41 26.67 26.67 2.95 4.03 3.51 103.6 104.2 0.0 0.0 36.81
2020-02-27 23:35 25.7 52.16 10.56 20.96 25.7 3.85 4.21 3.4 67.9 103.5 0.0 0.0 36.75
2020-02-27 23:40 25.02 54.21 10.79 20.17 25.02 3.85 5.1 3.31 119.7 99.2 0.0 0.0 36.68
2020-02-27 23:45 25.93 53.56 11.37 21.23 25.93 3.85 4.74 3.67 119.9 113.3 0.0 0.0 36.64
2020-02-27 23:50 25.81 53.08 11.05 22.08 25.81 3.13 4.03 2.95 73.2 98.3 0.0 0.0 36.57
2020-02-27 23:55 24.66 55.4 10.94 19.99 24.66 3.67 4.74 3.47 101.6 93.7 0.0 0.0 36.52
2020-02-28 00:00 24.73 55.58 11.08 20.85 24.73 3.13 4.56 3.56 103.2 101.6 0.0 0.0 36.45
2020-02-28 00:05 26.31 51.97 11.05 21.02 26.31 4.38 5.64 4.59 100.7 111.9 0.0 0.0 36.39
2020-02-28 00:10 26.87 50.16 10.77 22.09 26.87 4.03 5.1 4.32 109.5 110.4 0.0 0.0 36.34
2020-02-28 00:15 25.59 52.96 10.8 20.83 25.59 3.85 4.56 3.62 91.0 105.7 0.0 0.0 36.28
2020-02-28 00:20 25.09 53.23 10.44 20.99 25.09 3.31 4.38 3.31 96.0 96.7 0.0 0.0 36.23
2020-02-28 00:25 25.34 53.0 10.58 19.69 25.34 4.56 4.74 3.91 125.3 117.2 0.0 0.0 36.18
2020-02-28 00:30 27.12 49.25 10.59 23.06 27.12 3.49 4.56 4.07 96.5 118.2 0.0 0.0 36.12
2020-02-28 00:35 24.85 54.46 10.74 19.32 24.85 4.38 4.56 3.89 122.2 111.1 0.0 0.0 36.1
2020-02-28 00:40 23.68 56.98 10.66 18.88 23.68 3.67 4.38 3.67 84.0 101.8 0.0 0.0 36.03
2020-02-28 00:45 24.6 54.33 10.45 24.6 24.6 2.59 4.21 3.56 113.3 100.0 0.0 0.0 36.0
2020-02-28 00:50 24.3 54.63 10.29 19.34 24.3 3.85 4.03 3.51 126.0 110.4 0.0 0.0 35.92
2020-02-28 00:55 25.84 51.7 10.49 20.08 25.84 4.74 4.74 3.74 120.1 113.3 0.0 0.0 35.89
2020-02-28 01:00 25.84 50.78 10.09 21.36 25.84 3.67 4.74 3.67 118.1 117.5 0.0 0.0 35.85
2020-02-28 01:05 24.19 54.74 10.23 24.19 24.19 2.95 4.03 3.56 78.1 92.6 0.0 0.0 35.8
2020-02-28 01:10 24.73 52.96 9.99 20.85 24.73 3.13 4.03 3.27 97.9 101.3 0.0 0.0 35.74
2020-02-28 01:15 25.52 51.33 10.03 25.52 25.52 2.59 3.49 2.66 129.7 110.2 0.0 0.0 35.71
2020-02-28 01:20 27.43 47.41 10.02 27.43 27.43 1.88 2.95 2.51 101.7 126.8 0.0 0.0 35.67
2020-02-28 01:25 28.6 44.55 9.7 28.6 28.6 2.95 3.31 2.8 133.8 122.9 0.0 0.0 35.62
2020-02-28 01:30 28.11 45.74 9.84 24.44 28.11 3.31 3.31 3.04 121.9 130.2 0.0 0.0 35.56
2020-02-28 01:35 27.07 48.23 10.07 27.07 27.07 2.95 3.31 3.13 154.7 134.1 0.0 0.0 35.55
2020-02-28 01:40 27.19 47.92 10.04 22.91 27.19 3.67 3.67 3.22 150.7 153.1 0.0 0.0 35.51
2020-02-28 01:45 27.19 48.3 10.22 23.65 27.19 3.13 4.03 3.51 130.7 134.7 0.0 0.0 35.47
2020-02-28 01:50 26.94 48.67 10.16 23.1 26.94 3.31 4.03 3.65 122.1 126.5 0.0 0.0 35.44
2020-02-28 01:55 25.72 50.72 9.95 25.72 25.72 2.95 4.38 3.71 128.4 110.9 0.0 0.0 35.4
2020-02-28 02:00 25.84 50.34 9.9 20.48 25.84 4.38 4.74 4.23 124.0 123.3 0.0 0.0 35.37
2020-02-28 02:05 26.76 49.22 10.24 21.35 26.76 4.56 5.1 4.54 127.1 129.8 0.0 0.0 35.31
2020-02-28 02:10 26.33 50.17 10.27 21.91 26.33 3.67 4.74 4.16 125.4 124.1 0.0 0.0 35.26
2020-02-28 02:15 24.19 55.04 10.35 19.46 24.19 3.67 4.21 3.36 116.9 110.0 0.0 0.0 35.26
2020-02-28 02:20 23.14 57.16 10.22 18.51 23.14 3.49 4.21 3.13 79.4 94.3 0.0 0.0 35.2
2020-02-28 02:25 23.32 55.79 9.85 19.26 23.32 3.13 3.85 3.15 120.7 88.9 0.0 0.0 35.19
2020-02-28 02:30 24.12 54.4 10.02 24.12 24.12 2.95 3.85 3.18 98.0 99.6 0.0 0.0 35.11
2020-02-28 02:35 24.12 54.02 9.87 20.16 24.12 3.13 4.56 3.96 108.7 106.6 0.0 0.0 35.11
2020-02-28 02:40 23.2 57.09 10.24 17.84 23.2 4.03 4.56 3.38 110.0 107.2 0.0 0.0 35.08
2020-02-28 02:45 23.63 54.53 9.62 19.33 23.63 3.31 4.56 3.83 121.4 116.4 0.0 0.0 35.06
2020-02-28 02:50 22.1 58.55 9.77 22.1 22.1 2.95 4.03 3.31 84.9 100.3 0.0 0.0 35.02
2020-02-28 02:55 21.79 58.62 9.51 16.71 21.79 3.67 4.38 3.44 111.3 97.1 0.0 0.0 34.99
2020-02-28 03:00 20.98 60.73 9.54 20.98 20.98 2.95 4.03 3.11 82.0 98.3 0.0 0.0 34.95
2020-02-28 03:05 20.57 62.78 9.89 13.7 20.57 4.92 4.92 3.44 117.4 102.5 0.0 0.0 34.92
2020-02-28 03:10 21.79 59.81 9.96 17.52 21.79 3.13 4.56 3.65 113.6 123.6 0.0 0.0 34.88
2020-02-28 03:15 23.38 55.45 9.76 18.78 23.38 3.49 3.85 3.44 76.6 116.2 0.0 0.0 34.86
2020-02-28 03:20 21.67 59.85 9.86 21.67 21.67 2.95 4.56 3.49 134.1 90.9 0.0 0.0 34.86
2020-02-28 03:25 22.78 57.09 9.85 17.6 22.78 3.85 4.56 3.67 98.0 93.9 0.0 0.0 34.83
2020-02-28 03:30 23.83 54.84 9.93 17.72 23.83 4.74 5.46 4.14 115.1 115.4 0.0 0.0 34.79
2020-02-28 03:35 24.8 51.85 9.59 18.48 24.8 5.1 5.1 4.32 121.5 119.3 0.0 0.0 34.77
2020-02-28 03:40 24.19 54.37 10.08 20.24 24.19 3.13 5.82 4.0 50.6 94.7 0.0 0.0 34.74
2020-02-28 03:45 22.78 56.07 9.45 22.78 22.78 2.77 3.85 2.71 71.6 73.5 0.0 0.0 34.72
2020-02-28 03:50 23.09 55.7 9.59 23.09 23.09 2.95 3.67 3.2 75.6 71.6 0.0 0.0 34.68
2020-02-28 03:55 23.27 54.23 9.16 23.27 23.27 2.95 3.49 2.91 87.3 78.8 0.0 0.0 34.66
2020-02-28 04:00 22.59 56.0 9.24 17.62 22.59 3.67 3.85 3.22 91.3 87.8 0.0 0.0 34.65
2020-02-28 04:05 22.41 56.04 9.08 18.22 22.41 3.13 3.85 3.29 82.4 82.7 0.0 0.0 34.61
2020-02-28 04:10 22.53 55.9 9.15 22.53 22.53 2.95 3.13 2.86 77.4 81.0 0.0 0.0 34.59
2020-02-28 04:15 20.88 59.68 9.04 20.88 20.88 2.59 3.31 2.89 80.1 77.6 0.0 0.0 34.57
2020-02-28 04:20 22.66 55.94 9.28 17.95 22.66 3.49 4.21 2.73 108.1 86.6 0.0 0.0 34.54
2020-02-28 04:25 23.52 52.19 8.54 18.22 23.52 4.03 4.21 3.67 110.9 106.6 0.0 0.0 34.5
2020-02-28 04:30 23.52 53.28 9.0 23.52 23.52 2.95 4.03 3.38 119.5 115.0 0.0 0.0 34.48
2020-02-28 04:35 23.65 52.16 8.65 19.35 23.65 3.31 3.49 3.2 123.2 126.3 0.0 0.0 34.47
2020-02-28 04:40 23.4 53.72 9.07 18.8 23.4 3.49 3.49 2.95 106.9 113.9 0.0 0.0 34.43
2020-02-28 04:45 22.53 56.21 9.27 22.53 22.53 2.59 3.67 3.15 84.2 93.5 0.0 0.0 34.43
2020-02-28 04:50 22.41 55.7 8.95 17.67 22.41 3.49 3.67 3.18 90.8 91.1 0.0 0.0 34.39
2020-02-28 04:55 20.62 61.19 9.36 16.19 20.62 3.13 3.67 3.24 90.8 88.0 0.0 0.0 34.38
2020-02-28 05:00 19.65 62.92 9.06 14.52 19.65 3.49 4.03 3.49 80.8 88.8 0.0 0.0 34.38
2020-02-28 05:05 18.48 67.35 9.46 18.48 18.48 2.42 3.67 2.55 84.6 81.2 0.0 0.0 34.34
2020-02-28 05:10 19.29 64.97 9.44 14.39 19.29 3.31 3.49 3.02 78.0 83.7 0.0 0.0 34.32
2020-02-28 05:15 19.53 63.91 9.29 19.53 19.53 2.77 3.67 3.09 78.5 79.6 0.0 0.0 34.3
2020-02-28 05:20 20.03 64.29 9.9 14.42 20.03 3.85 3.85 3.04 65.6 74.8 0.0 0.0 34.27
2020-02-28 05:25 19.17 66.14 9.71 19.17 19.17 1.88 4.03 2.62 82.1 74.2 0.0 0.0 34.25
2020-02-28 05:30 19.17 65.01 9.33 13.96 19.17 3.49 3.49 2.64 95.8 88.1 0.0 0.0 34.23
2020-02-28 05:35 19.17 64.81 9.26 13.96 19.17 3.49 4.21 3.6 82.9 98.0 0.0 0.0 34.21
2020-02-28 05:40 19.24 64.77 9.31 19.24 19.24 2.95 4.21 3.49 99.0 101.0 0.0 0.0 34.2
2020-02-28 05:45 19.54 65.97 10.02 14.97 19.54 3.13 4.03 3.33 114.6 115.8 0.0 0.0 34.16
2020-02-28 05:50 19.35 67.06 10.19 19.35 19.35 2.24 3.31 2.86 91.2 115.2 0.0 0.0 34.16
2020-02-28 05:55 18.55 67.57 9.61 13.54 18.55 3.31 3.49 2.55 87.0 84.6 0.0 0.0 34.12
2020-02-28 06:00 19.9 64.03 9.69 15.37 19.9 3.13 4.21 3.67 95.0 98.4 0.0 0.0 34.11
2020-02-28 06:05 19.6 65.56 9.93 19.6 19.6 2.77 3.85 3.2 71.0 84.7 0.0 0.0 34.09
2020-02-28 06:10 19.11 66.24 9.7 13.12 19.11 4.03 4.21 3.13 104.1 93.0 0.0 0.0 34.05
2020-02-28 06:15 19.47 65.29 9.72 13.53 19.47 4.03 4.38 3.38 114.9 105.7 0.0 0.0 34.05
2020-02-28 06:20 18.81 66.75 9.57 18.81 18.81 2.42 4.03 3.13 89.5 89.9 0.0 0.0 34.05
2020-02-28 06:25 18.63 68.05 9.83 18.63 18.63 2.95 3.31 2.84 71.5 72.6 0.0 0.0 34.03
2020-02-28 06:30 18.73 66.68 9.48 18.73 18.73 1.52 3.31 2.68 82.9 72.7 0.0 0.0 34.0
2020-02-28 06:35 18.81 67.19 9.72 18.81 18.81 1.52 2.06 1.79 81.1 81.2 0.0 0.0 34.0
2020-02-28 06:40 19.11 66.04 9.63 19.11 19.11 1.52 2.59 2.06 83.1 90.5 0.0 0.001 33.96
2020-02-28 06:45 18.73 67.57 9.78 13.46 18.73 3.49 3.49 2.55 74.2 79.4 0.0 0.001 33.94
2020-02-28 06:50 18.55 68.49 9.91 13.26 18.55 3.49 3.67 3.09 65.6 69.5 0.0 0.002 33.93
2020-02-28 06:55 18.32 69.82 10.11 18.32 18.32 2.95 3.67 2.68 60.7 67.3 0.0 0.003 33.91
2020-02-28 07:00 18.99 68.59 10.36 13.22 18.99 3.85 4.38 3.38 80.6 70.2 0.0 0.003 33.89
2020-02-28 07:05 19.42 67.64 10.46 19.42 19.42 1.88 3.67 2.75 75.6 73.0 0.0 0.005 33.87
2020-02-28 07:10 19.9 67.67 10.93 19.9 19.9 1.7 2.77 2.04 90.1 70.4 0.0 0.007 33.85
2020-02-28 07:15 20.89 65.9 11.28 20.89 20.89 2.59 3.13 2.51 70.6 78.6 0.0 0.009 33.84
2020-02-28 07:20 22.12 64.88 12.1 22.12 22.12 1.88 2.59 1.9 103.3 85.5 0.0 0.011 33.82
2020-02-28 07:25 24.03 60.28 12.25 24.03 24.03 2.59 2.59 2.08 65.1 71.3 0.0 0.014 33.82
2020-02-28 07:30 25.79 56.22 12.33 25.79 25.79 1.34 2.59 2.01 75.0 61.3 0.0 0.017 33.8
2020-02-28 07:35 27.52 51.11 11.79 27.52 27.52 2.95 2.95 1.63 60.4 58.7 0.0 0.031 33.8
2020-02-28 07:40 29.3 48.35 12.19 29.3 29.3 2.42 2.95 2.01 51.8 69.5 0.0 0.045 33.76
2020-02-28 07:45 31.26 46.2 12.96 31.26 31.26 1.52 3.13 2.15 100.0 76.0 0.0 0.051 33.75
2020-02-28 07:50 33.35 42.01 12.71 33.35 33.35 2.24 2.95 1.81 73.4 90.4 0.0 0.057 33.73
2020-02-28 07:55 34.57 39.96 12.68 34.57 34.57 1.52 3.67 2.3 8.2 77.9 0.0 0.061 33.73
2020-02-28 08:00 34.99 38.83 12.41 34.99 34.99 1.88 4.38 2.15 71.2 62.1 0.0 0.057 33.71
2020-02-28 08:05 34.92 38.62 12.22 34.92 34.92 2.77 4.56 3.04 29.0 83.1 0.0 0.062 33.69
2020-02-28 08:10 35.1 41.68 14.11 35.1 35.1 1.52 5.28 3.2 72.4 80.9 0.0 0.071 33.69
2020-02-28 08:15 35.87 38.54 13.03 35.87 35.87 2.59 5.82 3.22 24.1 76.9 0.0 0.08 33.69
2020-02-28 08:20 36.61 36.87 12.69 36.61 36.61 2.59 4.92 3.13 112.7 82.1 0.0 0.086 33.69
2020-02-28 08:25 37.69 40.13 15.59 37.69 37.69 2.59 5.46 2.86 65.3 84.0 0.0 0.092 33.69
2020-02-28 08:30 38.25 36.89 14.16 35.07 38.25 4.21 6.0 3.09 83.6 81.8 0.0 0.095 33.69
2020-02-28 08:35 37.99 36.45 13.66 37.99 37.99 1.88 5.64 3.67 102.8 75.4 0.0 0.106 33.64
2020-02-28 08:40 38.82 36.44 14.4 36.64 38.82 3.31 4.21 3.04 40.0 75.9 0.0 0.107 33.64
2020-02-28 08:45 38.77 38.31 15.5 35.06 38.77 4.92 5.46 3.53 56.0 68.1 0.0 0.108 33.64
2020-02-28 08:50 37.96 40.62 16.11 35.46 37.96 3.49 5.1 3.47 308.5 43.9 0.0 0.11 33.64
2020-02-28 08:55 37.4 41.98 16.37 35.23 37.4 3.13 4.74 3.4 21.8 47.1 0.0 0.105 33.62
2020-02-28 09:00 37.15 44.97 17.73 34.95 37.15 3.13 6.0 3.8 27.8 42.6 0.0 0.108 33.62
2020-02-28 09:05 38.43 41.02 16.76 38.43 38.43 2.06 4.21 2.77 91.3 60.1 0.0 0.106 33.62
2020-02-28 09:10 39.29 38.74 16.22 39.29 39.29 2.59 4.38 3.24 58.6 96.1 0.0 0.104 33.62
2020-02-28 09:15 39.29 37.58 15.52 36.45 39.29 4.03 4.74 3.33 51.0 78.9 0.0 0.111 33.58
2020-02-28 09:20 38.79 37.41 14.97 36.04 38.79 3.85 5.1 3.44 106.6 74.0 0.0 0.098 33.58
2020-02-28 09:25 38.61 38.57 15.51 38.61 38.61 2.42 4.21 3.06 35.5 63.4 0.0 0.09 33.58
2020-02-28 09:30 39.09 37.1 15.05 37.16 39.09 3.13 5.82 3.13 12.3 59.5 0.0 0.109 33.57
2020-02-28 09:35 39.52 36.59 15.12 39.52 39.52 2.77 6.17 4.0 87.3 51.2 0.0 0.151 33.57
2020-02-28 09:40 39.76 34.21 13.79 39.76 39.76 1.88 4.74 3.04 69.2 64.0 0.0 0.111 33.57
2020-02-28 09:45 39.94 34.75 14.31 37.54 39.94 3.67 4.21 3.24 117.3 69.1 0.0 0.122 33.57
2020-02-28 09:50 39.94 34.27 13.99 39.94 39.94 2.95 4.92 3.22 43.8 61.9 0.0 0.101 33.57
2020-02-28 09:55 39.74 34.03 13.65 39.74 39.74 2.59 4.03 2.66 75.8 39.3 0.0 0.099 33.55
2020-02-28 10:00 40.3 34.0 14.13 38.52 40.3 3.13 3.85 2.89 338.6 36.2 0.0 0.107 33.57
2020-02-28 10:05 40.35 32.84 13.38 40.35 40.35 1.88 5.1 2.95 116.8 65.7 0.0 0.098 33.58
2020-02-28 10:10 40.48 31.89 12.83 40.48 40.48 2.59 4.03 2.77 74.9 86.8 0.0 0.091 33.62
2020-02-28 10:15 41.09 32.36 13.7 41.09 41.09 2.59 4.56 3.09 32.7 64.0 0.0 0.127 33.67
2020-02-28 10:20 41.45 30.22 12.46 38.35 41.45 4.74 4.74 3.36 70.5 74.8 0.0 0.15 33.73
2020-02-28 10:25 42.57 31.24 14.19 42.57 42.57 2.42 4.21 2.59 2.5 79.3 0.0 0.156 33.8
2020-02-28 10:30 42.31 29.44 12.62 40.81 42.31 3.13 4.03 3.11 59.3 40.9 0.0 0.154 33.91
2020-02-28 10:35 43.11 28.18 12.32 43.11 43.11 2.95 4.03 2.3 28.1 39.0 0.0 0.199 34.02
2020-02-28 10:40 43.72 28.66 13.24 43.72 43.72 2.59 4.92 3.06 155.0 84.3 0.0 0.215 34.18
2020-02-28 10:45 42.49 29.16 12.56 40.31 42.49 3.85 5.46 3.91 332.6 324.4 0.0 0.198 34.36
2020-02-28 10:50 43.39 28.96 13.19 43.39 43.39 1.34 4.92 2.95 221.9 332.5 0.0 0.182 34.52
2020-02-28 10:55 43.95 27.39 12.41 43.95 43.95 2.59 4.74 3.29 46.7 14.1 0.0 0.147 34.77
2020-02-28 11:00 44.13 27.59 12.73 44.13 44.13 2.95 2.95 1.99 285.7 308.0 0.0 0.148 34.99
2020-02-28 11:05 45.72 26.37 13.07 45.72 45.72 2.77 3.31 2.28 67.0 293.3 0.0 0.181 35.22
2020-02-28 11:10 45.9 26.03 12.93 45.9 45.9 2.42 4.21 2.75 347.0 357.0 0.0 0.189 35.46
2020-02-28 11:15 46.44 24.87 12.36 46.44 46.44 1.16 4.21 2.51 262.2 350.9 0.0 0.192 35.69
2020-02-28 11:20 46.85 26.33 14.01 46.85 46.85 2.24 6.71 2.3 114.2 108.8 0.0 0.161 35.94
2020-02-28 11:25 47.46 24.73 13.11 47.46 47.46 1.7 3.31 2.06 115.1 122.3 0.0 0.15 36.18
2020-02-28 11:30 47.59 24.69 13.18 46.48 47.59 3.49 3.85 2.24 155.9 162.8 0.0 0.151 36.43
2020-02-28 11:35 46.9 24.49 12.41 45.25 46.9 4.03 4.74 3.38 182.8 161.8 0.0 0.156 36.66
2020-02-28 11:40 46.8 25.14 12.91 46.8 46.8 2.42 5.64 3.67 197.7 182.9 0.0 0.144 36.88
2020-02-28 11:45 46.36 25.37 12.75 46.36 46.36 1.88 4.38 3.0 226.3 240.9 0.0 0.154 37.09
2020-02-28 11:50 46.8 24.18 12.03 44.99 46.8 4.21 6.17 4.16 167.3 196.1 0.0 0.14 37.29
2020-02-28 11:55 46.6 25.68 13.23 45.19 46.6 3.67 5.28 3.87 223.1 207.8 0.0 0.158 37.49
2020-02-28 12:00 47.34 22.86 11.22 47.34 47.34 2.95 4.38 2.86 230.1 227.6 0.0 0.18 37.69

Data is courtesy of the NM Climate Center. DO NOT USE IN LEGAL PROCEEDINGS.